Due Process — WDI6717 — position and weather

sailwx.info

Track history (hours):
 
Tides and Currents Weather Stations Pressure Air Temp Water Temp Dewpoint Dewpoint Depression Visibility Wind Speed Wind Dir Waves Ship Positions

Due Process

Owner: Morrison, Freddy A, Deerfield Beach, FL. More information available from US FCC via Universal Licensing System and Coast Guard Vessel Documentation Center.

Last reported at 2017-Oct-15 20:53 UTC. Time now 2017-Oct-17 16:34 UTC.
Position N 26°17' W 080°05'.

Length 29 m; draft 2 m.

Type: Pleasure craft. MMSI: 367721520.

Date/timePositionNaut miles runAvg speedWind from/ knotsBaromVisibWave heightAir tempDewpointWater temp
2017-Oct-15 20:53N 26°17' W 080°05'2 4.8
2017-Oct-15 20:30N 26°19' W 080°05'2 3.2
2017-Oct-15 20:00N 26°21' W 080°05'0 0.9
2017-Oct-15 19:30N 26°21' W 080°05'2 4.4
2017-Oct-15 19:00N 26°19' W 080°05'2 4.4
2017-Oct-15 18:30N 26°17' W 080°05'2 4.7
2017-Oct-15 18:00N 26°19' W 080°05'2 3.8
2017-Oct-15 17:30N 26°21' W 080°05'0 0.2
2017-Oct-15 16:41N 26°21' W 080°05'0 0.0
2017-Oct-15 16:14N 26°21' W 080°05'1 2.9
2017-Oct-15 16:00N 26°20' W 080°05'2 3.3
2017-Oct-15 15:30N 26°19' W 080°05'2 0.0
2017-Oct-13 19:48N 26°17' W 080°05'1 4.5
2017-Oct-13 19:29N 26°16' W 080°05'1 3.0
2017-Oct-13 19:00N 26°14' W 080°06'2 3.0
2017-Oct-13 18:30N 26°16' W 080°05'1 0.1
2017-Oct-12 19:48N 26°17' W 080°05'1 3.9
2017-Oct-12 19:30N 26°16' W 080°05'2 4.6
2017-Oct-12 19:00N 26°14' W 080°06'0 0.6
2017-Oct-12 18:30N 26°14' W 080°06'2 4.8
2017-Oct-12 18:00N 26°16' W 080°05'1 0.0
2017-Oct-11 19:56N 26°17' W 080°05'1 2.8
2017-Oct-11 19:30N 26°16' W 080°05'2 3.4
2017-Oct-11 19:01N 26°14' W 080°06'1 2.2
2017-Oct-11 18:30N 26°15' W 080°05'2 3.4
2017-Oct-11 18:00N 26°17' W 080°05'0 0.0
2017-Oct-10 19:50N 26°17' W 080°05'1 3.4
2017-Oct-10 19:30N 26°16' W 080°05'2 3.8
2017-Oct-10 19:00N 26°14' W 080°06'1 2.5
2017-Oct-10 18:30N 26°15' W 080°05'  
2017-Oct-06 19:45N 26°17' W 080°05'1 3.7
2017-Oct-06 19:30N 26°16' W 080°05'2 4.9
2017-Oct-06 19:00N 26°14' W 080°06'2 4.2
2017-Oct-06 18:30N 26°12' W 080°06'2 4.5
2017-Oct-06 18:00N 26°14' W 080°06'3 5.5
2017-Oct-06 17:30N 26°17' W 080°05'  
Track history (hours):
 
Tides and Currents Weather Stations Pressure Air Temp Water Temp Dewpoint Dewpoint Depression Visibility Wind Speed Wind Dir Waves Ship Positions

Due Process

Owner: Morrison, Freddy A, Deerfield Beach, FL. More information available from US FCC via Universal Licensing System and Coast Guard Vessel Documentation Center.

Last reported at 2017-Oct-15 20:53 UTC. Time now 2017-Oct-17 16:34 UTC.
Position N 26°17' W 080°05'.

Length 29 m; draft 2 m.

Type: Pleasure craft. MMSI: 367721520.

Date/timePositionNaut miles runAvg speedWind from/ knotsBaromVisibWave heightAir tempDewpointWater temp
2017-Oct-15 20:53N 26°17' W 080°05'2 4.8
2017-Oct-15 20:30N 26°19' W 080°05'2 3.2
2017-Oct-15 20:00N 26°21' W 080°05'0 0.9
2017-Oct-15 19:30N 26°21' W 080°05'2 4.4
2017-Oct-15 19:00N 26°19' W 080°05'2 4.4
2017-Oct-15 18:30N 26°17' W 080°05'2 4.7
2017-Oct-15 18:00N 26°19' W 080°05'2 3.8
2017-Oct-15 17:30N 26°21' W 080°05'0 0.2
2017-Oct-15 16:41N 26°21' W 080°05'0 0.0
2017-Oct-15 16:14N 26°21' W 080°05'1 2.9
2017-Oct-15 16:00N 26°20' W 080°05'2 3.3
2017-Oct-15 15:30N 26°19' W 080°05'2 0.0
2017-Oct-13 19:48N 26°17' W 080°05'1 4.5
2017-Oct-13 19:29N 26°16' W 080°05'1 3.0
2017-Oct-13 19:00N 26°14' W 080°06'2 3.0
2017-Oct-13 18:30N 26°16' W 080°05'1 0.1
2017-Oct-12 19:48N 26°17' W 080°05'1 3.9
2017-Oct-12 19:30N 26°16' W 080°05'2 4.6
2017-Oct-12 19:00N 26°14' W 080°06'0 0.6
2017-Oct-12 18:30N 26°14' W 080°06'2 4.8
2017-Oct-12 18:00N 26°16' W 080°05'1 0.0
2017-Oct-11 19:56N 26°17' W 080°05'1 2.8
2017-Oct-11 19:30N 26°16' W 080°05'2 3.4
2017-Oct-11 19:01N 26°14' W 080°06'1 2.2
2017-Oct-11 18:30N 26°15' W 080°05'2 3.4
2017-Oct-11 18:00N 26°17' W 080°05'0 0.0
2017-Oct-10 19:50N 26°17' W 080°05'1 3.4
2017-Oct-10 19:30N 26°16' W 080°05'2 3.8
2017-Oct-10 19:00N 26°14' W 080°06'1 2.5
2017-Oct-10 18:30N 26°15' W 080°05'  
2017-Oct-06 19:45N 26°17' W 080°05'1 3.7
2017-Oct-06 19:30N 26°16' W 080°05'2 4.9
2017-Oct-06 19:00N 26°14' W 080°06'2 4.2
2017-Oct-06 18:30N 26°12' W 080°06'2 4.5
2017-Oct-06 18:00N 26°14' W 080°06'3 5.5
2017-Oct-06 17:30N 26°17' W 080°05'  

Dump ship's entire track history